sensor_id;sensor_type;location;lat;lon;timestamp;temperature;humidity
9125;DHT22;4597;48.730;9.114;2023-11-19T00:00:21;8.50;99.90
9125;DHT22;4597;48.730;9.114;2023-11-19T00:02:47;8.50;99.90
9125;DHT22;4597;48.730;9.114;2023-11-19T00:05:13;8.50;99.90
9125;DHT22;4597;48.730;9.114;2023-11-19T00:07:40;8.50;99.90
9125;DHT22;4597;48.730;9.114;2023-11-19T00:10:12;8.50;99.90
9125;DHT22;4597;48.730;9.114;2023-11-19T00:12:43;8.50;99.90
9125;DHT22;4597;48.730;9.114;2023-11-19T00:15:09;8.50;99.90
9125;DHT22;4597;48.730;9.114;2023-11-19T00:17:40;8.50;99.90
9125;DHT22;4597;48.730;9.114;2023-11-19T00:20:10;8.50;99.90
9125;DHT22;4597;48.730;9.114;2023-11-19T00:22:36;8.50;99.90
9125;DHT22;4597;48.730;9.114;2023-11-19T00:25:01;8.50;99.90
9125;DHT22;4597;48.730;9.114;2023-11-19T00:27:27;8.50;99.90
9125;DHT22;4597;48.730;9.114;2023-11-19T00:29:53;8.50;99.90
9125;DHT22;4597;48.730;9.114;2023-11-19T00:32:18;8.50;99.90
9125;DHT22;4597;48.730;9.114;2023-11-19T00:34:44;8.50;99.90
9125;DHT22;4597;48.730;9.114;2023-11-19T00:37:10;8.40;99.90
9125;DHT22;4597;48.730;9.114;2023-11-19T00:39:35;8.30;99.90
9125;DHT22;4597;48.730;9.114;2023-11-19T00:42:01;8.30;99.90
9125;DHT22;4597;48.730;9.114;2023-11-19T00:44:26;8.30;99.90
9125;DHT22;4597;48.730;9.114;2023-11-19T00:46:52;8.20;99.90
9125;DHT22;4597;48.730;9.114;2023-11-19T00:49:17;8.10;99.90
9125;DHT22;4597;48.730;9.114;2023-11-19T00:51:43;8.10;99.90
9125;DHT22;4597;48.730;9.114;2023-11-19T00:54:08;8.10;99.90
9125;DHT22;4597;48.730;9.114;2023-11-19T00:56:34;8.00;99.90
9125;DHT22;4597;48.730;9.114;2023-11-19T00:58:59;8.00;99.90
9125;DHT22;4597;48.730;9.114;2023-11-19T01:01:25;8.00;99.90
9125;DHT22;4597;48.730;9.114;2023-11-19T01:03:51;8.10;99.90
9125;DHT22;4597;48.730;9.114;2023-11-19T01:06:27;8.20;99.90
9125;DHT22;4597;48.730;9.114;2023-11-19T01:08:52;8.30;99.90
9125;DHT22;4597;48.730;9.114;2023-11-19T01:11:21;8.30;99.90
9125;DHT22;4597;48.730;9.114;2023-11-19T01:13:47;8.40;99.90
9125;DHT22;4597;48.730;9.114;2023-11-19T01:16:13;8.50;99.90
9125;DHT22;4597;48.730;9.114;2023-11-19T01:18:39;8.50;99.90
9125;DHT22;4597;48.730;9.114;2023-11-19T01:21:05;8.50;99.90
9125;DHT22;4597;48.730;9.114;2023-11-19T01:23:30;8.50;99.90
9125;DHT22;4597;48.730;9.114;2023-11-19T01:25:56;8.60;99.90
9125;DHT22;4597;48.730;9.114;2023-11-19T01:28:21;8.60;99.90
9125;DHT22;4597;48.730;9.114;2023-11-19T01:30:50;8.60;99.90
9125;DHT22;4597;48.730;9.114;2023-11-19T01:33:15;8.60;99.90
9125;DHT22;4597;48.730;9.114;2023-11-19T01:35:41;8.60;99.90
9125;DHT22;4597;48.730;9.114;2023-11-19T01:38:06;8.60;99.90
9125;DHT22;4597;48.730;9.114;2023-11-19T01:40:34;8.70;99.90
9125;DHT22;4597;48.730;9.114;2023-11-19T01:42:59;8.70;99.90
9125;DHT22;4597;48.730;9.114;2023-11-19T01:45:29;8.70;99.90
9125;DHT22;4597;48.730;9.114;2023-11-19T01:48:00;8.60;99.90
9125;DHT22;4597;48.730;9.114;2023-11-19T01:50:26;8.70;99.90
9125;DHT22;4597;48.730;9.114;2023-11-19T01:52:54;8.70;99.90
9125;DHT22;4597;48.730;9.114;2023-11-19T01:55:20;8.70;99.90
9125;DHT22;4597;48.730;9.114;2023-11-19T01:57:47;8.70;99.90
9125;DHT22;4597;48.730;9.114;2023-11-19T02:00:13;8.70;99.90
9125;DHT22;4597;48.730;9.114;2023-11-19T02:02:40;8.70;99.90
9125;DHT22;4597;48.730;9.114;2023-11-19T02:05:06;8.70;99.90
9125;DHT22;4597;48.730;9.114;2023-11-19T02:07:32;8.70;99.90
9125;DHT22;4597;48.730;9.114;2023-11-19T02:09:57;8.70;99.90
9125;DHT22;4597;48.730;9.114;2023-11-19T02:12:28;8.70;99.90
9125;DHT22;4597;48.730;9.114;2023-11-19T02:14:54;8.70;99.90
9125;DHT22;4597;48.730;9.114;2023-11-19T02:17:29;8.70;99.90
9125;DHT22;4597;48.730;9.114;2023-11-19T02:20:00;8.80;99.90
9125;DHT22;4597;48.730;9.114;2023-11-19T02:22:25;8.80;99.90
9125;DHT22;4597;48.730;9.114;2023-11-19T02:24:54;8.70;99.90
9125;DHT22;4597;48.730;9.114;2023-11-19T02:30:00;8.80;99.90
9125;DHT22;4597;48.730;9.114;2023-11-19T02:32:28;8.80;99.90
9125;DHT22;4597;48.730;9.114;2023-11-19T02:34:56;8.80;99.90
9125;DHT22;4597;48.730;9.114;2023-11-19T02:37:21;8.80;99.90
9125;DHT22;4597;48.730;9.114;2023-11-19T02:39:47;8.80;99.90
9125;DHT22;4597;48.730;9.114;2023-11-19T02:42:12;8.80;99.90
9125;DHT22;4597;48.730;9.114;2023-11-19T02:44:43;8.80;99.90
9125;DHT22;4597;48.730;9.114;2023-11-19T02:47:08;8.80;99.90
9125;DHT22;4597;48.730;9.114;2023-11-19T02:49:34;8.80;99.90
9125;DHT22;4597;48.730;9.114;2023-11-19T02:51:59;8.80;99.90
9125;DHT22;4597;48.730;9.114;2023-11-19T02:54:25;8.80;99.90
9125;DHT22;4597;48.730;9.114;2023-11-19T02:56:52;8.80;99.90
9125;DHT22;4597;48.730;9.114;2023-11-19T02:59:21;8.80;99.90
9125;DHT22;4597;48.730;9.114;2023-11-19T03:01:53;8.80;99.90
9125;DHT22;4597;48.730;9.114;2023-11-19T03:04:19;8.90;99.90
9125;DHT22;4597;48.730;9.114;2023-11-19T03:06:48;8.80;99.90
9125;DHT22;4597;48.730;9.114;2023-11-19T03:09:14;8.90;99.90
9125;DHT22;4597;48.730;9.114;2023-11-19T03:11:39;8.90;99.90
9125;DHT22;4597;48.730;9.114;2023-11-19T03:14:05;8.90;99.90
9125;DHT22;4597;48.730;9.114;2023-11-19T03:16:30;8.80;99.90
9125;DHT22;4597;48.730;9.114;2023-11-19T03:18:56;8.80;99.90
9125;DHT22;4597;48.730;9.114;2023-11-19T03:21:31;8.90;99.90
9125;DHT22;4597;48.730;9.114;2023-11-19T03:23:57;8.90;99.90
9125;DHT22;4597;48.730;9.114;2023-11-19T03:26:28;8.80;99.90
9125;DHT22;4597;48.730;9.114;2023-11-19T03:28:54;8.80;99.90
9125;DHT22;4597;48.730;9.114;2023-11-19T03:31:21;8.80;99.90
9125;DHT22;4597;48.730;9.114;2023-11-19T03:33:47;8.80;99.90
9125;DHT22;4597;48.730;9.114;2023-11-19T03:36:12;8.80;99.90
9125;DHT22;4597;48.730;9.114;2023-11-19T03:38:38;8.80;99.90
9125;DHT22;4597;48.730;9.114;2023-11-19T03:41:11;8.80;99.90
9125;DHT22;4597;48.730;9.114;2023-11-19T03:43:36;8.80;99.90
9125;DHT22;4597;48.730;9.114;2023-11-19T03:46:02;8.70;99.90
9125;DHT22;4597;48.730;9.114;2023-11-19T03:48:28;8.80;99.90
9125;DHT22;4597;48.730;9.114;2023-11-19T03:50:53;8.70;99.90
9125;DHT22;4597;48.730;9.114;2023-11-19T03:53:19;8.80;99.90
9125;DHT22;4597;48.730;9.114;2023-11-19T03:55:45;8.80;99.90
9125;DHT22;4597;48.730;9.114;2023-11-19T03:58:10;8.80;99.90
9125;DHT22;4597;48.730;9.114;2023-11-19T04:00:37;8.80;99.90
9125;DHT22;4597;48.730;9.114;2023-11-19T04:03:02;8.80;99.90
9125;DHT22;4597;48.730;9.114;2023-11-19T04:05:28;8.80;99.90
9125;DHT22;4597;48.730;9.114;2023-11-19T04:07:54;8.80;99.90
9125;DHT22;4597;48.730;9.114;2023-11-19T04:10:19;8.80;99.90
9125;DHT22;4597;48.730;9.114;2023-11-19T04:12:45;8.80;99.90
9125;DHT22;4597;48.730;9.114;2023-11-19T04:15:11;8.80;99.90
9125;DHT22;4597;48.730;9.114;2023-11-19T04:17:37;8.80;99.90
9125;DHT22;4597;48.730;9.114;2023-11-19T04:20:03;8.80;99.90
9125;DHT22;4597;48.730;9.114;2023-11-19T04:22:29;8.90;99.90
9125;DHT22;4597;48.730;9.114;2023-11-19T04:24:55;8.90;99.90
9125;DHT22;4597;48.730;9.114;2023-11-19T04:27:20;9.00;99.90
9125;DHT22;4597;48.730;9.114;2023-11-19T04:29:46;9.00;99.90
9125;DHT22;4597;48.730;9.114;2023-11-19T04:32:12;9.20;99.90
9125;DHT22;4597;48.730;9.114;2023-11-19T04:34:38;9.30;99.90
9125;DHT22;4597;48.730;9.114;2023-11-19T04:37:04;9.50;99.90
9125;DHT22;4597;48.730;9.114;2023-11-19T04:39:29;9.70;99.90
9125;DHT22;4597;48.730;9.114;2023-11-19T04:41:55;9.90;99.90
9125;DHT22;4597;48.730;9.114;2023-11-19T04:44:21;10.00;99.90
9125;DHT22;4597;48.730;9.114;2023-11-19T04:46:47;10.10;99.90
9125;DHT22;4597;48.730;9.114;2023-11-19T04:49:13;10.20;99.90
9125;DHT22;4597;48.730;9.114;2023-11-19T04:51:44;10.30;99.90
9125;DHT22;4597;48.730;9.114;2023-11-19T04:54:11;10.40;99.90
9125;DHT22;4597;48.730;9.114;2023-11-19T04:56:37;10.50;99.90
9125;DHT22;4597;48.730;9.114;2023-11-19T04:59:03;10.50;99.90
9125;DHT22;4597;48.730;9.114;2023-11-19T05:01:29;10.70;99.90
9125;DHT22;4597;48.730;9.114;2023-11-19T05:03:56;10.80;99.90
9125;DHT22;4597;48.730;9.114;2023-11-19T05:06:29;10.80;99.90
9125;DHT22;4597;48.730;9.114;2023-11-19T05:08:55;11.00;99.90
9125;DHT22;4597;48.730;9.114;2023-11-19T05:11:21;11.00;99.90
9125;DHT22;4597;48.730;9.114;2023-11-19T05:13:47;11.00;99.90
9125;DHT22;4597;48.730;9.114;2023-11-19T05:16:13;11.10;99.90
9125;DHT22;4597;48.730;9.114;2023-11-19T05:18:41;11.30;99.90
9125;DHT22;4597;48.730;9.114;2023-11-19T05:21:06;11.30;99.90
9125;DHT22;4597;48.730;9.114;2023-11-19T05:23:35;11.40;99.90
9125;DHT22;4597;48.730;9.114;2023-11-19T05:26:01;11.40;99.90
9125;DHT22;4597;48.730;9.114;2023-11-19T05:28:27;11.50;99.90
9125;DHT22;4597;48.730;9.114;2023-11-19T05:30:53;11.50;99.90
9125;DHT22;4597;48.730;9.114;2023-11-19T05:33:18;11.60;99.90
9125;DHT22;4597;48.730;9.114;2023-11-19T05:35:44;11.60;99.90
9125;DHT22;4597;48.730;9.114;2023-11-19T05:38:09;11.60;99.90
9125;DHT22;4597;48.730;9.114;2023-11-19T05:40:35;11.60;99.90
9125;DHT22;4597;48.730;9.114;2023-11-19T05:43:01;11.60;99.90
9125;DHT22;4597;48.730;9.114;2023-11-19T05:45:27;11.60;99.90
9125;DHT22;4597;48.730;9.114;2023-11-19T05:47:52;11.60;99.90
9125;DHT22;4597;48.730;9.114;2023-11-19T05:50:18;11.60;99.90
9125;DHT22;4597;48.730;9.114;2023-11-19T05:52:44;11.60;99.90
9125;DHT22;4597;48.730;9.114;2023-11-19T05:55:09;11.60;99.90
9125;DHT22;4597;48.730;9.114;2023-11-19T05:57:36;11.60;99.90
9125;DHT22;4597;48.730;9.114;2023-11-19T06:00:02;11.70;99.90
9125;DHT22;4597;48.730;9.114;2023-11-19T06:02:32;11.70;99.90
9125;DHT22;4597;48.730;9.114;2023-11-19T06:04:58;11.70;99.90
9125;DHT22;4597;48.730;9.114;2023-11-19T06:07:23;11.70;99.90
9125;DHT22;4597;48.730;9.114;2023-11-19T06:09:50;11.80;99.90
9125;DHT22;4597;48.730;9.114;2023-11-19T06:12:15;11.80;99.90
9125;DHT22;4597;48.730;9.114;2023-11-19T06:14:41;11.80;99.90
9125;DHT22;4597;48.730;9.114;2023-11-19T06:17:07;11.90;99.90
9125;DHT22;4597;48.730;9.114;2023-11-19T06:19:33;11.90;99.90
9125;DHT22;4597;48.730;9.114;2023-11-19T06:21:59;11.80;99.90
9125;DHT22;4597;48.730;9.114;2023-11-19T06:24:25;11.80;99.90
9125;DHT22;4597;48.730;9.114;2023-11-19T06:26:50;11.80;99.90
9125;DHT22;4597;48.730;9.114;2023-11-19T06:29:16;11.80;99.90
9125;DHT22;4597;48.730;9.114;2023-11-19T06:31:44;11.90;99.90
9125;DHT22;4597;48.730;9.114;2023-11-19T06:34:10;11.90;99.90
9125;DHT22;4597;48.730;9.114;2023-11-19T06:36:36;11.90;99.90
9125;DHT22;4597;48.730;9.114;2023-11-19T06:39:01;11.90;99.90
9125;DHT22;4597;48.730;9.114;2023-11-19T06:41:27;11.90;99.90
9125;DHT22;4597;48.730;9.114;2023-11-19T06:43:54;11.90;99.90
9125;DHT22;4597;48.730;9.114;2023-11-19T06:46:20;11.90;99.90
9125;DHT22;4597;48.730;9.114;2023-11-19T06:48:46;11.90;99.90
9125;DHT22;4597;48.730;9.114;2023-11-19T06:51:12;11.90;99.90
9125;DHT22;4597;48.730;9.114;2023-11-19T06:53:37;12.00;99.90
9125;DHT22;4597;48.730;9.114;2023-11-19T06:56:05;11.90;99.90
9125;DHT22;4597;48.730;9.114;2023-11-19T06:58:35;11.90;99.90
9125;DHT22;4597;48.730;9.114;2023-11-19T07:01:01;11.90;99.90
9125;DHT22;4597;48.730;9.114;2023-11-19T07:03:26;12.00;99.90
9125;DHT22;4597;48.730;9.114;2023-11-19T07:05:52;12.00;99.90
9125;DHT22;4597;48.730;9.114;2023-11-19T07:08:17;12.00;99.90
9125;DHT22;4597;48.730;9.114;2023-11-19T07:10:43;12.00;99.90
9125;DHT22;4597;48.730;9.114;2023-11-19T07:13:08;12.10;99.90
9125;DHT22;4597;48.730;9.114;2023-11-19T07:15:35;12.20;99.90
9125;DHT22;4597;48.730;9.114;2023-11-19T07:18:00;12.20;99.90
9125;DHT22;4597;48.730;9.114;2023-11-19T07:20:26;12.20;99.90
9125;DHT22;4597;48.730;9.114;2023-11-19T07:22:52;12.10;99.90
9125;DHT22;4597;48.730;9.114;2023-11-19T07:25:17;12.20;99.90
9125;DHT22;4597;48.730;9.114;2023-11-19T07:27:43;12.20;99.90
9125;DHT22;4597;48.730;9.114;2023-11-19T07:30:09;12.30;99.90
9125;DHT22;4597;48.730;9.114;2023-11-19T07:32:34;12.30;99.90
9125;DHT22;4597;48.730;9.114;2023-11-19T07:35:00;12.30;99.90
9125;DHT22;4597;48.730;9.114;2023-11-19T07:37:26;12.30;99.90
9125;DHT22;4597;48.730;9.114;2023-11-19T07:39:51;12.30;99.90
9125;DHT22;4597;48.730;9.114;2023-11-19T07:42:17;12.30;99.90
9125;DHT22;4597;48.730;9.114;2023-11-19T07:44:43;12.20;99.90
9125;DHT22;4597;48.730;9.114;2023-11-19T07:47:09;12.20;99.90
9125;DHT22;4597;48.730;9.114;2023-11-19T07:49:35;12.30;99.90
9125;DHT22;4597;48.730;9.114;2023-11-19T07:52:01;12.30;99.90
9125;DHT22;4597;48.730;9.114;2023-11-19T07:54:28;12.30;99.90
9125;DHT22;4597;48.730;9.114;2023-11-19T07:56:54;12.30;99.90
9125;DHT22;4597;48.730;9.114;2023-11-19T07:59:19;12.40;99.90
9125;DHT22;4597;48.730;9.114;2023-11-19T08:01:45;12.40;99.90
9125;DHT22;4597;48.730;9.114;2023-11-19T08:04:10;12.50;99.90
9125;DHT22;4597;48.730;9.114;2023-11-19T08:06:36;12.50;99.90
9125;DHT22;4597;48.730;9.114;2023-11-19T08:09:02;12.50;99.90
9125;DHT22;4597;48.730;9.114;2023-11-19T08:11:27;12.50;99.90
9125;DHT22;4597;48.730;9.114;2023-11-19T08:13:53;12.60;99.90
9125;DHT22;4597;48.730;9.114;2023-11-19T08:16:18;12.70;99.90
9125;DHT22;4597;48.730;9.114;2023-11-19T08:18:44;12.80;99.90
9125;DHT22;4597;48.730;9.114;2023-11-19T08:21:10;12.90;99.90
9125;DHT22;4597;48.730;9.114;2023-11-19T08:23:36;12.90;99.90
9125;DHT22;4597;48.730;9.114;2023-11-19T08:26:01;12.90;99.90
9125;DHT22;4597;48.730;9.114;2023-11-19T08:28:27;13.00;99.90
9125;DHT22;4597;48.730;9.114;2023-11-19T08:30:53;13.00;99.90
9125;DHT22;4597;48.730;9.114;2023-11-19T08:33:18;13.00;99.90
9125;DHT22;4597;48.730;9.114;2023-11-19T08:35:44;13.00;99.90
9125;DHT22;4597;48.730;9.114;2023-11-19T08:38:10;13.00;99.90
9125;DHT22;4597;48.730;9.114;2023-11-19T08:40:36;13.10;99.90
9125;DHT22;4597;48.730;9.114;2023-11-19T08:43:01;13.10;99.90
9125;DHT22;4597;48.730;9.114;2023-11-19T08:45:27;13.10;99.90
9125;DHT22;4597;48.730;9.114;2023-11-19T08:47:52;13.10;99.90
9125;DHT22;4597;48.730;9.114;2023-11-19T08:50:18;13.20;99.90
9125;DHT22;4597;48.730;9.114;2023-11-19T08:52:43;13.10;99.90
9125;DHT22;4597;48.730;9.114;2023-11-19T08:55:09;13.00;99.90
9125;DHT22;4597;48.730;9.114;2023-11-19T08:57:35;13.00;99.90
9125;DHT22;4597;48.730;9.114;2023-11-19T09:00:01;13.10;99.90
9125;DHT22;4597;48.730;9.114;2023-11-19T09:02:26;13.20;99.90
9125;DHT22;4597;48.730;9.114;2023-11-19T09:04:52;13.20;99.90
9125;DHT22;4597;48.730;9.114;2023-11-19T09:07:17;13.20;99.90
9125;DHT22;4597;48.730;9.114;2023-11-19T09:09:43;13.30;99.90
9125;DHT22;4597;48.730;9.114;2023-11-19T09:12:08;13.30;99.90
9125;DHT22;4597;48.730;9.114;2023-11-19T09:14:34;13.40;99.90
9125;DHT22;4597;48.730;9.114;2023-11-19T09:16:59;13.60;99.90
9125;DHT22;4597;48.730;9.114;2023-11-19T09:19:25;13.60;99.90
9125;DHT22;4597;48.730;9.114;2023-11-19T09:21:54;13.80;99.90
9125;DHT22;4597;48.730;9.114;2023-11-19T09:24:20;13.90;99.90
9125;DHT22;4597;48.730;9.114;2023-11-19T09:26:45;13.90;99.90
9125;DHT22;4597;48.730;9.114;2023-11-19T09:29:11;13.80;99.90
9125;DHT22;4597;48.730;9.114;2023-11-19T09:31:40;13.60;99.90
9125;DHT22;4597;48.730;9.114;2023-11-19T09:34:05;13.50;99.90
9125;DHT22;4597;48.730;9.114;2023-11-19T09:36:31;13.40;99.90
9125;DHT22;4597;48.730;9.114;2023-11-19T09:38:57;13.30;99.90
9125;DHT22;4597;48.730;9.114;2023-11-19T09:41:23;13.20;99.90
9125;DHT22;4597;48.730;9.114;2023-11-19T09:43:49;13.20;99.90
9125;DHT22;4597;48.730;9.114;2023-11-19T09:46:15;13.20;99.90
9125;DHT22;4597;48.730;9.114;2023-11-19T09:48:42;13.20;99.90
9125;DHT22;4597;48.730;9.114;2023-11-19T09:51:09;13.30;99.90
9125;DHT22;4597;48.730;9.114;2023-11-19T09:53:36;13.30;99.90
9125;DHT22;4597;48.730;9.114;2023-11-19T09:56:03;13.40;99.90
9125;DHT22;4597;48.730;9.114;2023-11-19T09:58:30;13.50;99.90
9125;DHT22;4597;48.730;9.114;2023-11-19T10:00:59;13.60;99.90
9125;DHT22;4597;48.730;9.114;2023-11-19T10:03:27;13.70;99.90
9125;DHT22;4597;48.730;9.114;2023-11-19T10:05:55;13.70;99.90
9125;DHT22;4597;48.730;9.114;2023-11-19T10:08:21;13.70;99.90
9125;DHT22;4597;48.730;9.114;2023-11-19T10:10:47;13.80;99.90
9125;DHT22;4597;48.730;9.114;2023-11-19T10:13:13;13.90;99.90
9125;DHT22;4597;48.730;9.114;2023-11-19T10:15:40;14.00;99.90
9125;DHT22;4597;48.730;9.114;2023-11-19T10:18:06;14.00;99.90
9125;DHT22;4597;48.730;9.114;2023-11-19T10:20:40;14.10;99.90
9125;DHT22;4597;48.730;9.114;2023-11-19T10:23:06;14.10;99.90
9125;DHT22;4597;48.730;9.114;2023-11-19T10:25:33;14.10;99.90
9125;DHT22;4597;48.730;9.114;2023-11-19T10:27:59;14.10;99.90
9125;DHT22;4597;48.730;9.114;2023-11-19T10:30:30;14.20;99.90
9125;DHT22;4597;48.730;9.114;2023-11-19T10:33:03;14.10;99.90
9125;DHT22;4597;48.730;9.114;2023-11-19T10:35:29;14.20;99.90
9125;DHT22;4597;48.730;9.114;2023-11-19T10:37:54;14.20;99.90
9125;DHT22;4597;48.730;9.114;2023-11-19T10:40:20;14.20;99.90
9125;DHT22;4597;48.730;9.114;2023-11-19T10:42:45;14.30;99.90
9125;DHT22;4597;48.730;9.114;2023-11-19T10:45:22;14.30;99.90
9125;DHT22;4597;48.730;9.114;2023-11-19T10:47:51;14.40;99.90
9125;DHT22;4597;48.730;9.114;2023-11-19T10:50:16;14.40;99.90
9125;DHT22;4597;48.730;9.114;2023-11-19T10:52:43;14.50;99.90
9125;DHT22;4597;48.730;9.114;2023-11-19T10:55:11;14.50;99.90
9125;DHT22;4597;48.730;9.114;2023-11-19T10:57:43;14.50;99.90
9125;DHT22;4597;48.730;9.114;2023-11-19T11:00:12;14.50;99.90
9125;DHT22;4597;48.730;9.114;2023-11-19T11:02:45;14.50;99.90
9125;DHT22;4597;48.730;9.114;2023-11-19T11:05:14;14.60;99.90
9125;DHT22;4597;48.730;9.114;2023-11-19T11:07:40;14.60;99.90
9125;DHT22;4597;48.730;9.114;2023-11-19T11:10:08;14.50;99.90
9125;DHT22;4597;48.730;9.114;2023-11-19T11:12:37;14.60;99.90
9125;DHT22;4597;48.730;9.114;2023-11-19T11:15:04;14.60;99.90
9125;DHT22;4597;48.730;9.114;2023-11-19T11:17:32;14.60;99.90
9125;DHT22;4597;48.730;9.114;2023-11-19T11:19:58;14.60;99.90
9125;DHT22;4597;48.730;9.114;2023-11-19T11:22:24;14.60;99.90
9125;DHT22;4597;48.730;9.114;2023-11-19T11:25:18;14.60;99.90
9125;DHT22;4597;48.730;9.114;2023-11-19T11:27:58;14.70;99.90
9125;DHT22;4597;48.730;9.114;2023-11-19T11:36:17;14.80;99.90
9125;DHT22;4597;48.730;9.114;2023-11-19T11:38:50;14.80;99.90
9125;DHT22;4597;48.730;9.114;2023-11-19T11:41:17;14.80;99.90
9125;DHT22;4597;48.730;9.114;2023-11-19T11:43:54;14.80;99.90
9125;DHT22;4597;48.730;9.114;2023-11-19T11:49:03;14.80;99.90
9125;DHT22;4597;48.730;9.114;2023-11-19T11:54:31;14.90;99.90
9125;DHT22;4597;48.730;9.114;2023-11-19T11:57:11;15.00;99.90
9125;DHT22;4597;48.730;9.114;2023-11-19T12:02:04;15.10;99.90
9125;DHT22;4597;48.730;9.114;2023-11-19T12:04:30;15.20;99.90
9125;DHT22;4597;48.730;9.114;2023-11-19T12:09:31;15.20;99.90
9125;DHT22;4597;48.730;9.114;2023-11-19T12:15:04;15.10;99.90
9125;DHT22;4597;48.730;9.114;2023-11-19T12:20:04;15.10;99.90
9125;DHT22;4597;48.730;9.114;2023-11-19T12:22:31;15.20;99.90
9125;DHT22;4597;48.730;9.114;2023-11-19T12:24:57;15.30;99.90
9125;DHT22;4597;48.730;9.114;2023-11-19T12:27:23;15.20;99.90
9125;DHT22;4597;48.730;9.114;2023-11-19T12:29:49;15.30;99.90
9125;DHT22;4597;48.730;9.114;2023-11-19T12:32:15;15.30;99.90
9125;DHT22;4597;48.730;9.114;2023-11-19T12:34:40;15.30;99.90
9125;DHT22;4597;48.730;9.114;2023-11-19T12:37:06;15.30;99.90
9125;DHT22;4597;48.730;9.114;2023-11-19T12:39:32;15.40;99.90
9125;DHT22;4597;48.730;9.114;2023-11-19T12:41:58;15.50;99.90
9125;DHT22;4597;48.730;9.114;2023-11-19T12:44:26;15.60;99.90
9125;DHT22;4597;48.730;9.114;2023-11-19T12:47:04;15.70;99.90
9125;DHT22;4597;48.730;9.114;2023-11-19T12:49:31;15.70;99.90
9125;DHT22;4597;48.730;9.114;2023-11-19T12:51:56;15.60;99.90
9125;DHT22;4597;48.730;9.114;2023-11-19T12:54:37;15.60;99.90
9125;DHT22;4597;48.730;9.114;2023-11-19T12:57:04;15.40;99.90
9125;DHT22;4597;48.730;9.114;2023-11-19T12:59:30;15.20;99.90
9125;DHT22;4597;48.730;9.114;2023-11-19T13:02:00;15.30;99.90
9125;DHT22;4597;48.730;9.114;2023-11-19T13:04:29;15.40;99.90
9125;DHT22;4597;48.730;9.114;2023-11-19T13:06:58;15.60;99.90
9125;DHT22;4597;48.730;9.114;2023-11-19T13:09:26;15.70;99.90
9125;DHT22;4597;48.730;9.114;2023-11-19T13:11:53;15.80;99.90
9125;DHT22;4597;48.730;9.114;2023-11-19T13:14:19;16.00;99.90
9125;DHT22;4597;48.730;9.114;2023-11-19T13:16:45;16.10;99.90
9125;DHT22;4597;48.730;9.114;2023-11-19T13:19:12;16.20;99.90
9125;DHT22;4597;48.730;9.114;2023-11-19T13:21:38;16.30;99.90
9125;DHT22;4597;48.730;9.114;2023-11-19T13:24:05;16.30;99.90
9125;DHT22;4597;48.730;9.114;2023-11-19T13:26:31;16.40;99.90
9125;DHT22;4597;48.730;9.114;2023-11-19T13:28:56;16.40;99.90
9125;DHT22;4597;48.730;9.114;2023-11-19T13:31:22;16.30;99.90
9125;DHT22;4597;48.730;9.114;2023-11-19T13:33:48;16.40;99.90
9125;DHT22;4597;48.730;9.114;2023-11-19T13:36:13;16.60;99.90
9125;DHT22;4597;48.730;9.114;2023-11-19T13:38:39;16.70;99.90
9125;DHT22;4597;48.730;9.114;2023-11-19T13:41:06;16.90;99.90
9125;DHT22;4597;48.730;9.114;2023-11-19T13:43:32;17.00;99.90
9125;DHT22;4597;48.730;9.114;2023-11-19T13:45:57;17.00;99.90
9125;DHT22;4597;48.730;9.114;2023-11-19T13:48:24;16.90;99.90
9125;DHT22;4597;48.730;9.114;2023-11-19T13:50:50;16.90;99.90
9125;DHT22;4597;48.730;9.114;2023-11-19T13:53:16;16.80;99.90
9125;DHT22;4597;48.730;9.114;2023-11-19T13:55:42;16.80;99.90
9125;DHT22;4597;48.730;9.114;2023-11-19T13:58:08;16.90;99.90
9125;DHT22;4597;48.730;9.114;2023-11-19T14:00:34;17.00;99.90
9125;DHT22;4597;48.730;9.114;2023-11-19T14:03:00;17.10;99.90
9125;DHT22;4597;48.730;9.114;2023-11-19T14:05:25;17.10;99.90
9125;DHT22;4597;48.730;9.114;2023-11-19T14:07:51;17.10;99.90
9125;DHT22;4597;48.730;9.114;2023-11-19T14:10:17;17.20;99.90
9125;DHT22;4597;48.730;9.114;2023-11-19T14:12:43;17.20;99.40
9125;DHT22;4597;48.730;9.114;2023-11-19T14:15:09;17.00;98.20
9125;DHT22;4597;48.730;9.114;2023-11-19T14:17:36;17.00;97.60
9125;DHT22;4597;48.730;9.114;2023-11-19T14:20:05;16.90;97.20
9125;DHT22;4597;48.730;9.114;2023-11-19T14:22:39;17.00;97.30
9125;DHT22;4597;48.730;9.114;2023-11-19T14:25:05;17.00;97.10
9125;DHT22;4597;48.730;9.114;2023-11-19T14:27:41;16.80;97.10
9125;DHT22;4597;48.730;9.114;2023-11-19T14:30:12;16.70;96.80
9125;DHT22;4597;48.730;9.114;2023-11-19T14:32:39;16.80;96.90
9125;DHT22;4597;48.730;9.114;2023-11-19T14:35:06;16.90;97.10
9125;DHT22;4597;48.730;9.114;2023-11-19T14:37:32;16.80;96.20
9125;DHT22;4597;48.730;9.114;2023-11-19T14:39:58;16.90;96.00
9125;DHT22;4597;48.730;9.114;2023-11-19T14:42:24;17.00;95.80
9125;DHT22;4597;48.730;9.114;2023-11-19T14:44:51;16.90;95.60
9125;DHT22;4597;48.730;9.114;2023-11-19T14:47:18;16.90;95.80
9125;DHT22;4597;48.730;9.114;2023-11-19T14:49:44;16.70;97.10
9125;DHT22;4597;48.730;9.114;2023-11-19T14:52:09;16.50;98.40
9125;DHT22;4597;48.730;9.114;2023-11-19T14:54:35;16.40;99.30
9125;DHT22;4597;48.730;9.114;2023-11-19T14:57:01;16.40;99.90
9125;DHT22;4597;48.730;9.114;2023-11-19T14:59:26;16.40;99.90
9125;DHT22;4597;48.730;9.114;2023-11-19T15:01:53;16.50;99.90
9125;DHT22;4597;48.730;9.114;2023-11-19T15:04:18;16.40;99.90
9125;DHT22;4597;48.730;9.114;2023-11-19T15:06:44;16.40;99.90
9125;DHT22;4597;48.730;9.114;2023-11-19T15:09:09;16.30;99.90
9125;DHT22;4597;48.730;9.114;2023-11-19T15:11:41;16.30;99.90
9125;DHT22;4597;48.730;9.114;2023-11-19T15:14:07;16.00;99.90
9125;DHT22;4597;48.730;9.114;2023-11-19T15:16:32;15.80;99.90
9125;DHT22;4597;48.730;9.114;2023-11-19T15:19:00;15.70;99.90
9125;DHT22;4597;48.730;9.114;2023-11-19T15:21:28;15.50;99.90
9125;DHT22;4597;48.730;9.114;2023-11-19T15:23:54;15.30;99.90
9125;DHT22;4597;48.730;9.114;2023-11-19T15:26:20;15.20;99.90
9125;DHT22;4597;48.730;9.114;2023-11-19T15:28:46;15.00;99.90
9125;DHT22;4597;48.730;9.114;2023-11-19T15:31:12;14.80;99.90
9125;DHT22;4597;48.730;9.114;2023-11-19T15:33:38;14.70;99.90
9125;DHT22;4597;48.730;9.114;2023-11-19T15:36:05;14.60;99.90
9125;DHT22;4597;48.730;9.114;2023-11-19T15:38:33;14.50;99.90
9125;DHT22;4597;48.730;9.114;2023-11-19T15:40:59;14.40;99.90
9125;DHT22;4597;48.730;9.114;2023-11-19T15:43:24;14.40;99.90
9125;DHT22;4597;48.730;9.114;2023-11-19T15:45:50;14.40;99.90
9125;DHT22;4597;48.730;9.114;2023-11-19T15:48:15;14.40;99.90
9125;DHT22;4597;48.730;9.114;2023-11-19T15:50:41;14.20;99.90
9125;DHT22;4597;48.730;9.114;2023-11-19T15:53:09;14.10;99.90
9125;DHT22;4597;48.730;9.114;2023-11-19T15:55:35;14.00;99.90
9125;DHT22;4597;48.730;9.114;2023-11-19T15:58:00;13.90;99.90
9125;DHT22;4597;48.730;9.114;2023-11-19T16:00:26;13.90;99.90
9125;DHT22;4597;48.730;9.114;2023-11-19T16:02:52;13.90;99.90
9125;DHT22;4597;48.730;9.114;2023-11-19T16:05:18;13.80;99.90
9125;DHT22;4597;48.730;9.114;2023-11-19T16:07:44;13.80;99.90
9125;DHT22;4597;48.730;9.114;2023-11-19T16:10:10;13.70;99.90
9125;DHT22;4597;48.730;9.114;2023-11-19T16:12:38;13.70;99.90
9125;DHT22;4597;48.730;9.114;2023-11-19T16:15:04;13.60;99.90
9125;DHT22;4597;48.730;9.114;2023-11-19T16:17:30;13.70;99.90
9125;DHT22;4597;48.730;9.114;2023-11-19T16:19:56;13.60;99.90
9125;DHT22;4597;48.730;9.114;2023-11-19T16:22:21;13.50;99.90
9125;DHT22;4597;48.730;9.114;2023-11-19T16:24:47;13.50;99.90
9125;DHT22;4597;48.730;9.114;2023-11-19T16:27:18;13.50;99.90